createdAt,value
2019-05-06T00:00:14.024Z,8.87
2019-05-06T00:01:14.945Z,8.78
2019-05-06T00:02:13.855Z,8.81
2019-05-06T00:03:13.926Z,8.82
2019-05-06T00:04:14.108Z,8.76
2019-05-06T00:05:14.399Z,8.71
2019-05-06T00:06:14.535Z,8.73
2019-05-06T00:07:13.858Z,8.70
2019-05-06T00:08:14.484Z,8.67
2019-05-06T00:09:14.727Z,8.70
2019-05-06T00:10:13.581Z,8.70
2019-05-06T00:11:14.247Z,8.66
2019-05-06T00:12:14.534Z,8.69
2019-05-06T00:13:14.056Z,8.64
2019-05-06T00:14:14.130Z,8.60
2019-05-06T00:15:14.497Z,8.60
2019-05-06T00:16:14.387Z,8.55
2019-05-06T00:17:14.544Z,8.49
2019-05-06T00:18:13.960Z,8.36
2019-05-06T00:19:13.892Z,8.36
2019-05-06T00:20:14.670Z,8.48
2019-05-06T00:21:14.779Z,8.38
2019-05-06T00:22:14.220Z,8.42
2019-05-06T00:23:14.270Z,8.42
2019-05-06T00:24:14.569Z,8.38
2019-05-06T00:25:14.057Z,8.31
2019-05-06T00:26:13.729Z,8.46
2019-05-06T00:27:14.171Z,8.42
2019-05-06T00:28:13.743Z,8.46
2019-05-06T00:29:13.998Z,8.38
2019-05-06T00:30:14.921Z,8.41
2019-05-06T00:31:16.527Z,8.41
2019-05-06T00:32:15.058Z,8.41
2019-05-06T00:33:13.653Z,8.36
2019-05-06T00:34:13.861Z,8.42
2019-05-06T00:35:14.220Z,8.42
2019-05-06T00:36:14.177Z,8.42
2019-05-06T00:37:14.612Z,8.44
2019-05-06T00:38:13.849Z,8.48
2019-05-06T00:39:14.898Z,8.53
2019-05-06T00:40:14.091Z,8.60
2019-05-06T00:41:14.403Z,8.66
2019-05-06T00:42:13.933Z,8.61
2019-05-06T00:43:14.087Z,8.67
2019-05-06T00:44:14.349Z,8.61
2019-05-06T00:45:13.641Z,8.55
2019-05-06T00:46:13.852Z,8.58
2019-05-06T00:47:13.553Z,8.51
2019-05-06T00:48:13.943Z,8.48
2019-05-06T00:49:14.352Z,8.42
2019-05-06T00:50:14.249Z,8.37
2019-05-06T00:51:13.598Z,8.33
2019-05-06T00:52:13.640Z,8.34
2019-05-06T00:53:14.161Z,8.30
2019-05-06T00:54:14.348Z,8.28
2019-05-06T00:55:13.731Z,8.41
2019-05-06T00:56:13.995Z,8.33
2019-05-06T00:57:13.976Z,8.34
2019-05-06T00:58:14.217Z,8.34
2019-05-06T00:59:14.357Z,8.37
2019-05-06T01:00:13.524Z,8.34
2019-05-06T01:01:25.527Z,8.31
2019-05-06T01:02:14.161Z,8.38
2019-05-06T01:03:14.124Z,8.34
2019-05-06T01:04:13.863Z,8.34
2019-05-06T01:05:13.890Z,8.41
2019-05-06T01:06:14.180Z,8.33
2019-05-06T01:07:14.043Z,8.38
2019-05-06T01:08:14.129Z,8.38
2019-05-06T01:09:14.105Z,8.33
2019-05-06T01:10:14.316Z,8.33
2019-05-06T01:11:14.396Z,8.34
2019-05-06T01:12:14.321Z,8.42
2019-05-06T01:13:14.564Z,8.48
2019-05-06T01:14:14.785Z,8.49
2019-05-06T01:15:14.272Z,8.52
2019-05-06T01:16:12.855Z,8.46
2019-05-06T01:17:13.439Z,8.51
2019-05-06T01:18:13.808Z,8.51
2019-05-06T01:19:14.156Z,8.51
2019-05-06T01:20:13.895Z,8.49
2019-05-06T01:21:14.492Z,8.49
2019-05-06T01:22:14.025Z,8.45
2019-05-06T01:23:14.371Z,8.52
2019-05-06T01:24:14.707Z,8.38
2019-05-06T01:25:14.248Z,8.41
2019-05-06T01:26:14.824Z,8.36
2019-05-06T01:27:14.451Z,8.46
2019-05-06T01:28:13.841Z,8.48
2019-05-06T01:29:14.530Z,8.38
2019-05-06T01:30:13.710Z,8.41
2019-05-06T01:31:14.001Z,8.44
2019-05-06T01:32:13.946Z,8.44
2019-05-06T01:33:14.458Z,8.38
2019-05-06T01:34:13.786Z,8.34
2019-05-06T01:35:14.035Z,8.36
2019-05-06T01:36:14.096Z,8.27
2019-05-06T01:37:14.254Z,8.23
2019-05-06T01:38:14.559Z,8.24
2019-05-06T01:39:13.890Z,8.28
2019-05-06T01:40:19.787Z,8.18
2019-05-06T01:41:54.261Z,8.15
2019-05-06T01:42:54.234Z,8.20
2019-05-06T01:44:35.938Z,8.16
2019-05-06T01:45:35.900Z,8.27
2019-05-06T01:47:17.554Z,8.30
2019-05-06T01:48:17.538Z,8.18
2019-05-06T01:49:59.203Z,8.15
2019-05-06T01:50:59.168Z,8.06
2019-05-06T01:51:59.164Z,8.06
2019-05-06T01:52:59.150Z,8.05
2019-05-06T01:53:59.134Z,8.03
2019-05-06T01:54:59.128Z,8.08
2019-05-06T01:55:59.114Z,8.13
2019-05-06T01:56:59.136Z,8.01
2019-05-06T01:58:06.353Z,8.08
2019-05-06T01:59:41.288Z,8.09
2019-05-06T02:00:41.232Z,8.05
2019-05-06T02:01:56.398Z,8.05
2019-05-06T02:02:43.939Z,8.01
2019-05-06T02:03:41.320Z,7.98
2019-05-06T02:04:41.196Z,8.00
2019-05-06T02:05:41.227Z,8.05
2019-05-06T02:06:41.164Z,8.01
2019-05-06T02:07:41.158Z,8.03
2019-05-06T02:08:41.152Z,7.95
2019-05-06T02:09:41.159Z,7.95
2019-05-06T02:10:41.144Z,7.91
2019-05-06T02:11:41.149Z,7.87
2019-05-06T02:12:41.102Z,7.95
2019-05-06T02:13:41.092Z,7.88
2019-05-06T02:14:41.096Z,7.91
2019-05-06T02:15:41.069Z,7.77
2019-05-06T02:16:41.072Z,7.77
2019-05-06T02:17:41.070Z,7.83
2019-05-06T02:18:41.034Z,7.88
2019-05-06T02:19:41.023Z,7.80
2019-05-06T02:20:41.026Z,7.79
2019-05-06T02:21:41.008Z,7.76
2019-05-06T02:22:41.000Z,7.70
2019-05-06T02:23:40.975Z,7.70
2019-05-06T02:24:40.971Z,7.72
2019-05-06T02:25:40.986Z,7.69
2019-05-06T02:26:40.945Z,7.77
2019-05-06T02:27:40.945Z,7.77
2019-05-06T02:28:40.924Z,7.79
2019-05-06T02:29:40.910Z,7.83
2019-05-06T02:30:40.930Z,7.83
2019-05-06T02:31:40.918Z,7.83
2019-05-06T02:32:40.878Z,7.85
2019-05-06T02:33:40.892Z,7.83
2019-05-06T02:34:40.859Z,7.83
2019-05-06T02:35:40.846Z,7.87
2019-05-06T02:36:40.843Z,7.80
2019-05-06T02:37:40.830Z,7.83
2019-05-06T02:38:50.459Z,7.79
2019-05-06T02:39:43.844Z,7.93
2019-05-06T02:40:42.678Z,7.88
2019-05-06T02:41:43.009Z,7.87
2019-05-06T02:42:43.136Z,7.83
2019-05-06T02:43:43.348Z,7.80
2019-05-06T02:44:43.869Z,7.77
2019-05-06T02:45:43.326Z,7.76
2019-05-06T02:46:43.858Z,7.73
2019-05-06T02:47:42.971Z,7.66
2019-05-06T02:48:43.256Z,7.79
2019-05-06T02:49:44.024Z,7.79
2019-05-06T02:50:42.672Z,7.69
2019-05-06T02:51:40.673Z,7.69
2019-05-06T02:52:43.772Z,7.58
2019-05-06T02:53:42.951Z,7.61
2019-05-06T02:54:42.728Z,7.58
2019-05-06T02:55:43.005Z,7.45
2019-05-06T02:56:43.331Z,7.39
2019-05-06T02:57:43.669Z,7.40
2019-05-06T02:58:43.482Z,7.42
2019-05-06T02:59:43.912Z,7.39
2019-05-06T03:00:42.988Z,7.40
2019-05-06T03:01:43.310Z,7.39
2019-05-06T03:02:44.911Z,7.33
2019-05-06T03:03:43.581Z,7.24
2019-05-06T03:04:43.485Z,7.17
2019-05-06T03:05:43.606Z,7.10
2019-05-06T03:06:40.518Z,7.07
2019-05-06T03:07:43.239Z,7.10
2019-05-06T03:08:43.217Z,7.10
2019-05-06T03:09:40.505Z,7.10
2019-05-06T03:10:43.819Z,7.10
2019-05-06T03:11:40.465Z,7.06
2019-05-06T03:12:43.006Z,7.06
2019-05-06T03:13:43.486Z,7.14
2019-05-06T03:14:43.475Z,7.06
2019-05-06T03:15:43.105Z,7.06
2019-05-06T03:16:43.686Z,7.11
2019-05-06T03:17:43.231Z,7.06
2019-05-06T03:18:43.129Z,7.06
2019-05-06T03:19:45.751Z,7.06
2019-05-06T03:20:43.948Z,7.07
2019-05-06T03:21:40.351Z,7.11
2019-05-06T03:22:43.281Z,7.07
2019-05-06T03:23:43.336Z,7.07
2019-05-06T03:24:43.370Z,7.15
2019-05-06T03:25:40.310Z,7.20
2019-05-06T03:26:40.342Z,7.17
2019-05-06T03:27:46.495Z,7.13
2019-05-06T03:28:43.791Z,7.17
2019-05-06T03:29:40.268Z,7.17
2019-05-06T03:30:45.222Z,7.21
2019-05-06T03:31:45.814Z,7.07
2019-05-06T03:33:14.110Z,7.07
2019-05-06T03:33:58.510Z,6.97
2019-05-06T03:35:01.532Z,6.88
2019-05-06T03:35:52.239Z,7.00
2019-05-06T03:36:48.012Z,7.10
2019-05-06T03:37:43.814Z,7.10
2019-05-06T03:38:42.842Z,7.10
2019-05-06T03:39:43.122Z,7.06
2019-05-06T03:40:45.076Z,6.93
2019-05-06T03:41:43.813Z,6.97
2019-05-06T03:42:42.651Z,6.85
2019-05-06T03:43:43.094Z,6.93
2019-05-06T03:44:40.104Z,6.97
2019-05-06T03:45:42.704Z,7.02
2019-05-06T03:46:42.828Z,7.03
2019-05-06T03:47:40.070Z,7.05
2019-05-06T03:48:40.069Z,7.00
2019-05-06T03:49:42.398Z,6.93
2019-05-06T03:50:40.040Z,6.85
2019-05-06T03:51:42.761Z,6.81
2019-05-06T03:52:42.892Z,6.81
2019-05-06T03:53:43.155Z,6.70
2019-05-06T03:54:45.053Z,6.78
2019-05-06T03:55:46.530Z,6.82
2019-05-06T03:56:43.364Z,6.77
2019-05-06T03:57:42.635Z,6.77
2019-05-06T03:58:43.275Z,6.75
2019-05-06T03:59:39.941Z,6.78
2019-05-06T04:00:39.935Z,6.79
2019-05-06T04:01:42.709Z,6.84
2019-05-06T04:02:42.695Z,6.81
2019-05-06T04:03:48.649Z,6.79
2019-05-06T04:04:43.791Z,6.82
2019-05-06T04:05:39.897Z,6.89
2019-05-06T04:06:39.850Z,6.89
2019-05-06T04:07:39.860Z,6.93
2019-05-06T04:08:39.847Z,6.92
2019-05-06T04:09:39.826Z,6.79
2019-05-06T04:10:43.272Z,6.78
2019-05-06T04:11:39.807Z,6.81
2019-05-06T04:12:39.820Z,6.81
2019-05-06T04:13:39.787Z,6.77
2019-05-06T04:14:43.093Z,6.81
2019-05-06T04:15:39.761Z,6.74
2019-05-06T04:16:39.813Z,6.72
2019-05-06T04:17:39.747Z,6.66
2019-05-06T04:18:39.725Z,6.63
2019-05-06T04:19:39.712Z,6.69
2019-05-06T04:20:39.716Z,6.70
2019-05-06T04:21:39.714Z,6.66
2019-05-06T04:22:39.686Z,6.63
2019-05-06T04:23:39.679Z,6.67
2019-05-06T04:24:42.938Z,6.56
2019-05-06T04:25:39.643Z,6.52
2019-05-06T04:26:39.632Z,6.52
2019-05-06T04:27:39.628Z,6.54
2019-05-06T04:28:39.635Z,6.54
2019-05-06T04:29:42.658Z,6.59
2019-05-06T04:30:39.587Z,6.70
2019-05-06T04:31:39.575Z,6.60
2019-05-06T04:32:39.578Z,6.64
2019-05-06T04:33:39.572Z,6.60
2019-05-06T04:34:39.552Z,6.49
2019-05-06T04:35:39.529Z,6.54
2019-05-06T04:36:39.519Z,6.48
2019-05-06T04:37:42.738Z,6.41
2019-05-06T04:38:39.504Z,6.52
2019-05-06T04:39:39.499Z,6.51
2019-05-06T04:40:39.500Z,6.52
2019-05-06T04:41:39.463Z,6.56
2019-05-06T04:42:39.463Z,6.60
2019-05-06T04:43:39.450Z,6.60
2019-05-06T04:44:39.432Z,6.60
2019-05-06T04:45:39.441Z,6.66
2019-05-06T04:46:39.442Z,6.63
2019-05-06T04:47:39.400Z,6.63
2019-05-06T04:48:39.393Z,6.67
2019-05-06T04:49:39.400Z,6.77
2019-05-06T04:50:39.383Z,6.82
2019-05-06T04:51:39.370Z,6.79
2019-05-06T04:52:39.353Z,6.78
2019-05-06T04:53:39.334Z,6.77
2019-05-06T04:54:39.333Z,6.77
2019-05-06T04:55:39.310Z,6.77
2019-05-06T04:56:39.313Z,6.79
2019-05-06T04:57:39.289Z,6.70
2019-05-06T04:58:39.274Z,6.64
2019-05-06T04:59:39.273Z,6.67
2019-05-06T05:00:39.262Z,6.66
2019-05-06T05:01:39.257Z,6.70
2019-05-06T05:02:39.241Z,6.77
2019-05-06T05:03:39.216Z,6.74
2019-05-06T05:04:39.207Z,6.79
2019-05-06T05:05:39.197Z,6.85
2019-05-06T05:06:39.194Z,6.82
2019-05-06T05:07:39.184Z,6.92
2019-05-06T05:08:39.186Z,6.78
2019-05-06T05:09:39.162Z,6.82
2019-05-06T05:10:39.146Z,6.95
2019-05-06T05:11:39.134Z,6.92
2019-05-06T05:12:39.128Z,6.92
2019-05-06T05:13:39.114Z,6.93
2019-05-06T05:14:39.105Z,6.93
2019-05-06T05:15:39.093Z,6.97
2019-05-06T05:16:39.068Z,7.06
2019-05-06T05:17:39.083Z,7.07
2019-05-06T05:18:39.053Z,7.14
2019-05-06T05:19:39.060Z,7.21
2019-05-06T05:20:45.535Z,7.24
2019-05-06T05:21:40.024Z,7.17
2019-05-06T05:22:39.003Z,7.20
2019-05-06T05:23:39.025Z,7.05
2019-05-06T05:24:38.993Z,7.17
2019-05-06T05:25:38.974Z,7.20
2019-05-06T05:26:38.954Z,7.18
2019-05-06T05:27:38.949Z,7.21
2019-05-06T05:28:38.952Z,7.20
2019-05-06T05:29:38.939Z,7.28
2019-05-06T05:30:38.932Z,7.38
2019-05-06T05:31:38.906Z,7.40
2019-05-06T05:32:38.918Z,7.47
2019-05-06T05:33:38.882Z,7.57
2019-05-06T05:34:40.856Z,7.66
2019-05-06T05:35:38.866Z,7.53
2019-05-06T05:36:38.868Z,7.66
2019-05-06T05:37:38.848Z,7.63
2019-05-06T05:38:38.830Z,7.66
2019-05-06T05:39:38.822Z,7.57
2019-05-06T05:40:38.818Z,7.63
2019-05-06T05:41:38.803Z,7.63
2019-05-06T05:42:38.821Z,7.61
2019-05-06T05:43:39.586Z,7.57
2019-05-06T05:44:38.761Z,7.57
2019-05-06T05:45:38.761Z,7.43
2019-05-06T05:46:38.758Z,7.50
2019-05-06T05:47:38.742Z,7.50
2019-05-06T05:48:38.753Z,7.47
2019-05-06T05:49:38.707Z,7.43
2019-05-06T05:50:38.750Z,7.58
2019-05-06T05:51:38.693Z,7.67
2019-05-06T05:52:38.834Z,7.75
2019-05-06T05:53:38.676Z,7.67
2019-05-06T05:54:38.687Z,7.76
2019-05-06T05:55:38.643Z,7.80
2019-05-06T05:56:38.631Z,7.79
2019-05-06T05:57:38.615Z,7.87
2019-05-06T05:58:38.618Z,7.90
2019-05-06T05:59:38.632Z,7.87
2019-05-06T06:00:38.614Z,7.93
2019-05-06T06:01:38.576Z,7.97
2019-05-06T06:02:38.580Z,8.00
2019-05-06T06:03:38.567Z,8.05
2019-05-06T06:04:53.444Z,8.00
2019-05-06T06:05:39.536Z,8.03
2019-05-06T06:06:38.517Z,7.94
2019-05-06T06:07:38.504Z,7.94
2019-05-06T06:08:38.496Z,7.90
2019-05-06T06:09:38.515Z,7.93
2019-05-06T06:10:38.517Z,7.91
2019-05-06T06:11:38.478Z,7.95
2019-05-06T06:12:38.469Z,7.95
2019-05-06T06:13:38.446Z,7.91
2019-05-06T06:14:38.449Z,8.03
2019-05-06T06:15:38.430Z,8.09
2019-05-06T06:16:38.437Z,8.01
2019-05-06T06:17:38.447Z,8.13
2019-05-06T06:18:38.419Z,8.15
2019-05-06T06:19:38.390Z,8.01
2019-05-06T06:20:38.364Z,8.10
2019-05-06T06:21:38.367Z,8.10
2019-05-06T06:22:38.344Z,8.03
2019-05-06T06:23:38.400Z,8.01
2019-05-06T06:24:38.320Z,8.10
2019-05-06T06:25:38.316Z,8.09
2019-05-06T06:26:38.298Z,8.08
2019-05-06T06:27:38.307Z,8.03
2019-05-06T06:28:38.272Z,8.00
2019-05-06T06:29:38.259Z,8.10
2019-05-06T06:30:38.266Z,8.08
2019-05-06T06:31:38.241Z,8.16
2019-05-06T06:32:38.238Z,8.24
2019-05-06T06:33:38.269Z,8.23
2019-05-06T06:34:38.203Z,8.33
2019-05-06T06:35:38.194Z,8.33
2019-05-06T06:36:38.195Z,8.36
2019-05-06T06:37:38.175Z,8.34
2019-05-06T06:38:38.180Z,8.44
2019-05-06T06:39:38.146Z,8.41
2019-05-06T06:40:38.138Z,8.41
2019-05-06T06:41:38.140Z,8.42
2019-05-06T06:42:38.121Z,8.44
2019-05-06T06:43:38.116Z,8.45
2019-05-06T06:44:38.123Z,8.38
2019-05-06T06:45:38.089Z,8.36
2019-05-06T06:46:38.077Z,8.51
2019-05-06T06:47:38.077Z,8.46
2019-05-06T06:48:38.060Z,8.60
2019-05-06T06:49:38.059Z,8.63
2019-05-06T06:50:38.053Z,8.67
2019-05-06T06:51:38.035Z,8.95
2019-05-06T06:52:38.013Z,9.31
2019-05-06T06:53:38.024Z,9.64
2019-05-06T06:54:37.990Z,9.58
2019-05-06T06:55:37.993Z,9.58
2019-05-06T06:56:37.968Z,9.62
2019-05-06T06:57:37.949Z,9.69
2019-05-06T06:58:37.948Z,9.69
2019-05-06T06:59:37.947Z,9.76
2019-05-06T07:00:37.928Z,9.82
2019-05-06T07:01:37.935Z,9.84
2019-05-06T07:02:37.890Z,9.76
2019-05-06T07:03:37.885Z,9.59
2019-05-06T07:04:37.886Z,9.66
2019-05-06T07:05:37.867Z,9.59
2019-05-06T07:06:37.896Z,9.58
2019-05-06T07:07:43.412Z,9.46
2019-05-06T07:08:38.840Z,9.47
2019-05-06T07:09:37.823Z,9.51
2019-05-06T07:10:37.816Z,9.41
2019-05-06T07:11:37.801Z,9.43
2019-05-06T07:12:37.798Z,9.46
2019-05-06T07:13:37.785Z,9.47
2019-05-06T07:14:37.765Z,9.51
2019-05-06T07:15:37.760Z,9.54
2019-05-06T07:16:37.746Z,9.46
2019-05-06T07:17:37.736Z,9.48
2019-05-06T07:18:37.716Z,9.54
2019-05-06T07:19:37.719Z,9.59
2019-05-06T07:20:37.701Z,9.59
2019-05-06T07:21:38.033Z,9.66
2019-05-06T07:22:37.676Z,9.79
2019-05-06T07:23:37.712Z,9.83
2019-05-06T07:24:37.676Z,9.87
2019-05-06T07:25:37.663Z,9.89
2019-05-06T07:26:37.633Z,9.89
2019-05-06T07:27:37.638Z,10.09
2019-05-06T07:28:37.628Z,10.07
2019-05-06T07:29:37.630Z,10.09
2019-05-06T07:30:37.609Z,10.23
2019-05-06T07:31:37.580Z,10.19
2019-05-06T07:32:37.571Z,10.23
2019-05-06T07:33:37.551Z,10.13
2019-05-06T07:34:37.582Z,10.05
2019-05-06T07:35:40.865Z,10.20
2019-05-06T07:36:37.533Z,10.09
2019-05-06T07:37:37.511Z,9.95
2019-05-06T07:38:37.519Z,9.99
2019-05-06T07:39:37.494Z,10.02
2019-05-06T07:40:37.496Z,9.89
2019-05-06T07:41:37.469Z,9.91
2019-05-06T07:42:37.546Z,9.94
2019-05-06T07:43:37.448Z,9.95
2019-05-06T07:44:37.450Z,9.87
2019-05-06T07:45:37.443Z,9.87
2019-05-06T07:46:37.428Z,10.01
2019-05-06T07:47:37.424Z,9.98
2019-05-06T07:48:37.395Z,10.07
2019-05-06T07:49:37.384Z,10.01
2019-05-06T07:50:37.374Z,10.09
2019-05-06T07:51:37.363Z,9.95
2019-05-06T07:52:37.353Z,9.89
2019-05-06T07:53:37.408Z,9.91
2019-05-06T07:54:37.387Z,9.92
2019-05-06T07:55:37.376Z,9.89
2019-05-06T07:56:37.387Z,9.92
2019-05-06T07:57:37.299Z,9.94
2019-05-06T07:58:37.290Z,10.04
2019-05-06T07:59:44.426Z,10.12
2019-05-06T08:01:19.421Z,10.10
2019-05-06T08:02:19.408Z,10.17
2019-05-06T08:03:19.398Z,10.26
2019-05-06T08:04:19.404Z,10.30
2019-05-06T08:05:19.366Z,10.35
2019-05-06T08:06:19.353Z,10.26
2019-05-06T08:07:19.346Z,10.28
2019-05-06T08:08:19.332Z,10.30
2019-05-06T08:09:19.331Z,10.22
2019-05-06T08:10:19.311Z,10.33
2019-05-06T08:11:19.301Z,10.34
2019-05-06T08:12:19.293Z,10.41
2019-05-06T08:13:19.278Z,10.46
2019-05-06T08:14:19.274Z,10.57
2019-05-06T08:15:19.270Z,10.74
2019-05-06T08:16:19.242Z,10.71
2019-05-06T08:17:19.233Z,10.64
2019-05-06T08:18:19.222Z,10.75
2019-05-06T08:19:19.224Z,10.69
2019-05-06T08:20:19.208Z,10.81
2019-05-06T08:21:19.199Z,10.86
2019-05-06T08:22:19.185Z,10.87
2019-05-06T08:23:19.167Z,10.75
2019-05-06T08:24:19.160Z,10.78
2019-05-06T08:25:19.159Z,10.93
2019-05-06T08:26:19.143Z,11.27
2019-05-06T08:27:19.121Z,11.57
2019-05-06T08:28:19.113Z,12.03
2019-05-06T08:29:19.098Z,12.21
2019-05-06T08:30:19.150Z,12.40
2019-05-06T08:31:19.074Z,12.32
2019-05-06T08:32:19.066Z,12.15
2019-05-06T08:33:19.054Z,12.00
2019-05-06T08:34:19.038Z,12.02
2019-05-06T08:35:19.036Z,11.90
2019-05-06T08:36:19.032Z,11.81
2019-05-06T08:37:19.012Z,11.70
2019-05-06T08:38:19.003Z,11.69
2019-05-06T08:39:18.989Z,11.78
2019-05-06T08:40:18.985Z,11.81
2019-05-06T08:41:18.966Z,11.80
2019-05-06T08:42:18.952Z,11.91
2019-05-06T08:43:18.942Z,12.15
2019-05-06T08:44:18.929Z,12.10
2019-05-06T08:45:18.917Z,12.12
2019-05-06T08:46:18.909Z,11.94
2019-05-06T08:47:18.906Z,11.70
2019-05-06T08:48:18.886Z,11.66
2019-05-06T08:49:18.878Z,11.68
2019-05-06T08:50:18.871Z,11.51
2019-05-06T08:51:18.851Z,11.52
2019-05-06T08:52:18.842Z,11.52
2019-05-06T08:53:18.835Z,11.48
2019-05-06T08:54:18.817Z,11.45
2019-05-06T08:55:18.820Z,11.48
2019-05-06T08:56:25.944Z,11.43
2019-05-06T08:58:02.755Z,11.22
2019-05-06T08:59:00.450Z,11.25
2019-05-06T09:00:32.322Z,11.05
2019-05-06T09:01:32.518Z,10.97
2019-05-06T09:02:32.444Z,10.87
2019-05-06T09:03:32.772Z,10.78
2019-05-06T09:04:32.060Z,10.87
